createdAt,value
2022-10-10T00:01:28.795Z,12.15
2022-10-10T00:03:55.888Z,9.50
2022-10-10T00:06:23.477Z,8.40
2022-10-10T00:08:50.925Z,12.05
2022-10-10T00:11:20.900Z,11.27
2022-10-10T00:13:49.363Z,10.43
2022-10-10T00:16:17.843Z,8.90
2022-10-10T00:18:45.367Z,10.95
2022-10-10T00:21:13.940Z,8.63
2022-10-10T00:23:42.046Z,12.18
2022-10-10T00:26:09.617Z,9.40
2022-10-10T00:28:39.053Z,10.23
2022-10-10T00:31:09.897Z,11.98
2022-10-10T00:33:37.852Z,10.05
2022-10-10T00:36:06.949Z,9.98
2022-10-10T00:38:34.105Z,12.38
2022-10-10T00:41:01.302Z,9.43
2022-10-10T00:43:30.030Z,6.78
2022-10-10T00:45:57.097Z,8.05
2022-10-10T00:48:32.757Z,9.38
2022-10-10T00:51:08.276Z,9.00
2022-10-10T00:53:43.506Z,8.35
2022-10-10T00:56:13.411Z,11.25
2022-10-10T00:58:44.033Z,7.82
2022-10-10T01:01:11.636Z,16.15
2022-10-10T01:03:38.614Z,9.32
2022-10-10T01:06:06.644Z,8.82
2022-10-10T01:08:33.880Z,8.15
2022-10-10T01:11:27.886Z,6.68
2022-10-10T01:14:21.882Z,7.60
2022-10-10T01:17:11.493Z,8.93
2022-10-10T01:20:26.366Z,7.68
2022-10-10T01:23:11.678Z,8.68
2022-10-10T01:26:19.000Z,8.15
2022-10-10T01:28:51.424Z,9.30
2022-10-10T01:31:22.795Z,9.75
2022-10-10T01:34:09.848Z,10.07
2022-10-10T01:37:08.908Z,7.00
2022-10-10T01:39:59.405Z,4.97
2022-10-10T01:42:43.821Z,2.72
2022-10-10T01:45:11.357Z,5.80
2022-10-10T01:47:39.199Z,3.15
2022-10-10T01:50:12.798Z,3.25
2022-10-10T01:53:01.639Z,5.70
2022-10-10T01:56:08.200Z,6.68
2022-10-10T01:59:16.852Z,6.28
2022-10-10T02:01:51.618Z,5.68
2022-10-10T02:04:57.082Z,9.82
2022-10-10T02:08:11.978Z,12.13
2022-10-10T02:10:49.464Z,14.75
2022-10-10T02:13:18.880Z,9.77
2022-10-10T02:15:52.124Z,14.77
2022-10-10T02:18:23.545Z,9.95
2022-10-10T02:20:51.920Z,10.52
2022-10-10T02:23:21.923Z,18.27
2022-10-10T02:25:54.088Z,12.45
2022-10-10T02:28:38.877Z,13.98
2022-10-10T02:31:17.108Z,11.07
2022-10-10T02:34:20.212Z,10.98
2022-10-10T02:36:53.262Z,16.15
2022-10-10T02:39:27.517Z,12.68
2022-10-10T02:41:54.623Z,15.70
2022-10-10T02:44:22.693Z,19.48
2022-10-10T02:46:49.805Z,16.30
2022-10-10T02:49:28.508Z,10.27
2022-10-10T02:51:55.372Z,14.18
2022-10-10T02:54:22.301Z,14.80
2022-10-10T02:56:49.309Z,13.75
2022-10-10T02:59:16.147Z,12.30
2022-10-10T03:01:43.732Z,14.10
2022-10-10T03:04:10.946Z,14.63
2022-10-10T03:06:37.723Z,12.80
2022-10-10T03:09:05.980Z,11.60
2022-10-10T03:11:33.011Z,14.80
2022-10-10T03:14:00.165Z,14.15
2022-10-10T03:16:27.056Z,11.55
2022-10-10T03:18:53.866Z,14.40
2022-10-10T03:21:20.843Z,9.48
2022-10-10T03:23:47.629Z,14.68
2022-10-10T03:26:14.546Z,10.63
2022-10-10T03:28:41.860Z,11.48
2022-10-10T03:31:08.828Z,16.02
2022-10-10T03:33:35.820Z,15.05
2022-10-10T03:36:02.784Z,11.80
2022-10-10T03:38:29.560Z,9.40
2022-10-10T03:40:56.697Z,18.13
2022-10-10T03:43:23.458Z,12.23
2022-10-10T03:45:50.802Z,14.52
2022-10-10T03:48:18.115Z,12.85
2022-10-10T03:50:44.919Z,14.43
2022-10-10T03:53:11.797Z,13.13
2022-10-10T03:55:43.146Z,14.80
2022-10-10T03:58:11.208Z,15.68
2022-10-10T04:00:38.786Z,8.88
2022-10-10T04:03:06.752Z,16.05
2022-10-10T04:05:35.978Z,14.13
2022-10-10T04:08:04.309Z,13.63
2022-10-10T04:10:31.872Z,12.65
2022-10-10T04:12:59.017Z,14.88
2022-10-10T04:15:26.099Z,20.65
2022-10-10T04:17:53.073Z,11.10
2022-10-10T04:20:20.060Z,16.20
2022-10-10T04:22:46.836Z,15.55
2022-10-10T04:25:13.756Z,17.67
2022-10-10T04:27:40.649Z,16.73
2022-10-10T04:30:08.247Z,16.48
2022-10-10T04:32:35.037Z,16.92
2022-10-10T04:35:01.989Z,18.17
2022-10-10T04:37:28.808Z,14.18
2022-10-10T04:39:56.112Z,18.33
2022-10-10T04:42:23.404Z,18.13
2022-10-10T04:44:50.379Z,13.73
2022-10-10T04:47:17.544Z,20.17
2022-10-10T04:49:44.650Z,17.77
2022-10-10T04:52:12.068Z,21.77
2022-10-10T04:54:38.893Z,20.88
2022-10-10T04:57:05.929Z,14.68
2022-10-10T04:59:32.856Z,18.73
2022-10-10T05:02:01.957Z,22.55
2022-10-10T05:04:29.277Z,19.90
2022-10-10T05:06:56.073Z,15.60
2022-10-10T05:09:27.263Z,18.75
2022-10-10T05:11:54.705Z,15.25
2022-10-10T05:14:21.505Z,18.52
2022-10-10T05:16:48.281Z,14.70
2022-10-10T05:19:15.389Z,19.50
2022-10-10T05:21:42.191Z,15.70
2022-10-10T05:24:08.997Z,10.93
2022-10-10T05:26:40.892Z,24.65
2022-10-10T05:29:09.924Z,17.88
2022-10-10T05:31:36.760Z,15.65
2022-10-10T05:34:03.630Z,17.80
2022-10-10T05:36:30.492Z,15.05
2022-10-10T05:38:57.895Z,12.48
2022-10-10T05:41:24.877Z,14.95
2022-10-10T05:43:51.684Z,19.15
2022-10-10T05:46:20.452Z,14.25
2022-10-10T05:48:47.224Z,17.67
2022-10-10T05:51:14.156Z,19.50
2022-10-10T05:53:41.101Z,12.68
2022-10-10T05:56:08.123Z,15.60
2022-10-10T05:58:35.221Z,18.33
2022-10-10T06:01:05.401Z,15.98
2022-10-10T06:03:33.504Z,14.85
2022-10-10T06:06:01.070Z,11.23
2022-10-10T06:08:28.670Z,19.05
2022-10-10T06:11:08.234Z,16.50
2022-10-10T06:13:35.523Z,12.90
2022-10-10T06:16:02.398Z,19.02
2022-10-10T06:18:29.891Z,15.35
2022-10-10T06:21:03.551Z,16.38
2022-10-10T06:23:30.400Z,12.75
2022-10-10T06:25:57.240Z,24.45
2022-10-10T06:28:24.165Z,24.73
2022-10-10T06:30:51.719Z,14.70
2022-10-10T06:33:19.654Z,17.42
2022-10-10T06:35:49.162Z,14.48
2022-10-10T06:38:17.165Z,20.23
2022-10-10T06:40:44.400Z,10.05
2022-10-10T06:43:13.594Z,20.25
2022-10-10T06:45:45.324Z,14.75
2022-10-10T06:48:14.544Z,15.60
2022-10-10T06:50:41.684Z,18.20
2022-10-10T06:53:08.673Z,19.80
2022-10-10T06:55:35.525Z,15.07
2022-10-10T06:58:02.367Z,19.30
2022-10-10T07:00:29.220Z,18.70
2022-10-10T07:02:55.999Z,14.32
2022-10-10T07:05:22.799Z,20.88
2022-10-10T07:07:52.878Z,14.35
2022-10-10T07:10:19.676Z,18.45
2022-10-10T07:12:46.484Z,12.55
2022-10-10T07:15:13.718Z,15.75
2022-10-10T07:17:40.697Z,17.33
2022-10-10T07:20:08.345Z,13.43
2022-10-10T07:22:35.390Z,16.38
2022-10-10T07:25:02.182Z,17.13
2022-10-10T07:27:29.173Z,18.88
2022-10-10T07:29:56.094Z,28.45
2022-10-10T07:32:22.887Z,19.17
2022-10-10T07:34:51.110Z,18.65
2022-10-10T07:37:18.075Z,21.30
2022-10-10T07:39:45.026Z,16.30
2022-10-10T07:42:12.003Z,16.45
2022-10-10T07:44:38.784Z,15.05
2022-10-10T07:47:05.804Z,19.75
2022-10-10T07:49:32.812Z,17.25
2022-10-10T07:52:01.604Z,22.63
2022-10-10T07:54:30.105Z,20.63
2022-10-10T07:56:58.092Z,20.08
2022-10-10T07:59:25.601Z,24.77
2022-10-10T08:01:52.473Z,21.25
2022-10-10T08:04:19.506Z,25.30
2022-10-10T08:06:46.427Z,21.23
2022-10-10T08:09:13.385Z,21.17
2022-10-10T08:11:40.200Z,20.20
2022-10-10T08:14:07.058Z,18.15
2022-10-10T08:16:36.951Z,21.95
2022-10-10T08:19:04.705Z,14.95
2022-10-10T08:21:31.757Z,19.40
2022-10-10T08:23:58.549Z,18.55
2022-10-10T08:26:25.548Z,18.48
2022-10-10T08:28:52.465Z,17.83
2022-10-10T08:31:22.092Z,16.80
2022-10-10T08:33:51.006Z,19.55
2022-10-10T08:36:22.787Z,23.40
2022-10-10T08:38:52.742Z,24.85
2022-10-10T08:41:34.596Z,17.00
2022-10-10T08:44:13.173Z,20.63
2022-10-10T08:47:10.245Z,17.35
2022-10-10T08:49:49.314Z,17.75
2022-10-10T08:52:39.057Z,17.42
2022-10-10T08:55:33.782Z,14.98
2022-10-10T08:58:12.630Z,16.85
2022-10-10T09:00:59.812Z,17.08
2022-10-10T09:03:57.920Z,19.20
2022-10-10T09:07:04.867Z,23.50
2022-10-10T09:09:58.323Z,16.13
2022-10-10T09:12:42.061Z,20.60
2022-10-10T09:15:11.841Z,20.30
2022-10-10T09:18:23.588Z,22.35
2022-10-10T09:21:17.503Z,17.33
2022-10-10T09:24:17.484Z,15.48
2022-10-10T09:26:57.484Z,20.05
2022-10-10T09:29:51.153Z,16.63
2022-10-10T09:33:17.655Z,25.55
2022-10-10T09:35:46.726Z,19.17
2022-10-10T09:38:33.593Z,20.73
2022-10-10T09:41:08.287Z,20.40
2022-10-10T09:43:35.852Z,21.77
2022-10-10T09:46:02.872Z,19.65
2022-10-10T09:48:36.813Z,22.75
2022-10-10T09:51:08.495Z,20.60
2022-10-10T09:53:35.299Z,19.83
2022-10-10T09:56:05.041Z,24.77
2022-10-10T09:58:46.992Z,20.98
2022-10-10T10:01:22.553Z,21.80
2022-10-10T10:04:34.264Z,18.98
2022-10-10T10:07:20.791Z,21.38
2022-10-10T10:09:54.546Z,18.20
2022-10-10T10:12:32.155Z,22.40
2022-10-10T10:15:05.126Z,23.65
2022-10-10T10:17:32.058Z,20.40
2022-10-10T10:19:58.977Z,20.38
2022-10-10T10:22:36.100Z,17.70
2022-10-10T10:25:39.108Z,19.65
2022-10-10T10:28:12.008Z,21.27
2022-10-10T10:30:40.249Z,22.48
2022-10-10T10:33:18.801Z,18.88
2022-10-10T10:35:54.616Z,19.30
2022-10-10T10:38:33.160Z,16.05
2022-10-10T10:41:35.634Z,16.42
2022-10-10T10:44:41.155Z,22.25
2022-10-10T10:47:29.425Z,11.40
2022-10-10T10:50:20.884Z,19.00
2022-10-10T10:53:11.090Z,17.38
2022-10-10T10:55:48.750Z,20.33
2022-10-10T10:59:38.476Z,18.58
2022-10-10T11:01:58.719Z,15.70
2022-10-10T11:05:19.929Z,17.05
2022-10-10T11:08:13.207Z,17.38
2022-10-10T11:11:09.069Z,18.75
2022-10-10T11:16:48.905Z,13.38
2022-10-10T11:19:27.213Z,15.20
2022-10-10T11:22:00.339Z,18.73
2022-10-10T11:25:02.739Z,15.98
2022-10-10T11:28:26.747Z,18.33
2022-10-10T11:31:03.599Z,17.38
2022-10-10T11:33:43.004Z,16.00
2022-10-10T11:36:19.268Z,14.60
2022-10-10T11:38:51.626Z,13.75
2022-10-10T11:41:26.150Z,16.70
2022-10-10T11:44:19.083Z,13.25
2022-10-10T11:47:00.690Z,12.32
2022-10-10T11:49:52.609Z,17.63
2022-10-10T11:53:00.382Z,14.40
2022-10-10T11:55:32.172Z,14.30
2022-10-10T11:58:04.974Z,15.10
2022-10-10T12:00:42.767Z,19.55
2022-10-10T12:03:10.144Z,12.85
2022-10-10T12:05:42.828Z,17.45
2022-10-10T12:08:19.014Z,9.90
2022-10-10T12:10:58.886Z,14.23
2022-10-10T12:13:32.779Z,14.23
2022-10-10T12:16:07.654Z,15.18
2022-10-10T12:19:16.149Z,15.80
2022-10-10T12:21:59.685Z,15.57
2022-10-10T12:24:30.762Z,15.88
2022-10-10T12:26:57.507Z,18.73
2022-10-10T12:29:51.148Z,15.25
2022-10-10T12:32:24.752Z,13.40
2022-10-10T12:34:51.506Z,13.80
2022-10-10T12:37:32.795Z,14.98
2022-10-10T12:40:21.729Z,13.45
2022-10-10T12:42:48.432Z,12.60
2022-10-10T12:45:31.237Z,13.48
2022-10-10T12:48:05.471Z,19.02
2022-10-10T12:50:40.276Z,15.68
2022-10-10T12:53:18.658Z,15.18
2022-10-10T12:55:49.159Z,17.65
2022-10-10T12:58:27.437Z,16.08
2022-10-10T13:01:19.815Z,17.75
2022-10-10T13:03:50.250Z,14.73
2022-10-10T13:06:39.518Z,14.20
2022-10-10T13:09:16.040Z,17.92
2022-10-10T13:11:55.024Z,15.52
2022-10-10T13:14:23.344Z,13.23
2022-10-10T13:16:50.163Z,16.40
2022-10-10T13:19:26.239Z,14.48
2022-10-10T13:21:55.911Z,17.23
2022-10-10T13:24:30.635Z,19.80
2022-10-10T13:26:57.931Z,20.83
2022-10-10T13:29:31.516Z,9.57
2022-10-10T13:32:06.291Z,14.40
2022-10-10T13:34:37.246Z,16.20
2022-10-10T13:37:05.936Z,12.00
2022-10-10T13:39:38.108Z,12.65
2022-10-10T13:42:08.779Z,14.73
2022-10-10T13:44:51.655Z,15.55
2022-10-10T13:47:46.529Z,15.48
2022-10-10T13:50:35.321Z,14.30
2022-10-10T13:53:26.957Z,14.27
2022-10-10T13:56:31.028Z,18.50
2022-10-10T13:59:11.021Z,21.17
2022-10-10T14:01:45.171Z,19.05
2022-10-10T14:04:27.253Z,15.20
2022-10-10T14:07:06.916Z,15.80
2022-10-10T14:09:41.273Z,20.17
2022-10-10T14:12:18.900Z,16.25
2022-10-10T14:14:51.631Z,10.30
2022-10-10T14:17:18.811Z,14.55
2022-10-10T14:19:47.837Z,14.80
2022-10-10T14:22:14.603Z,17.27
2022-10-10T14:24:41.400Z,16.63
2022-10-10T14:27:24.908Z,16.95
2022-10-10T14:29:54.602Z,16.42
2022-10-10T14:32:22.207Z,16.20
2022-10-10T14:34:49.119Z,17.60
2022-10-10T14:37:25.397Z,17.55
2022-10-10T14:39:52.899Z,18.23
2022-10-10T14:42:21.651Z,18.65
2022-10-10T14:44:48.491Z,18.40
2022-10-10T14:47:19.379Z,18.98
2022-10-10T14:49:46.720Z,25.40
2022-10-10T14:52:13.777Z,17.60
2022-10-10T14:54:40.979Z,21.63
2022-10-10T14:57:10.328Z,19.33
2022-10-10T14:59:46.156Z,13.40
2022-10-10T15:02:19.786Z,20.15
2022-10-10T15:04:46.672Z,19.02
2022-10-10T15:07:15.023Z,16.88
2022-10-10T15:12:41.831Z,16.05
2022-10-10T15:15:10.973Z,21.05
2022-10-10T15:17:37.836Z,15.38
2022-10-10T15:20:08.419Z,18.15
2022-10-10T15:22:35.962Z,23.65
2022-10-10T15:25:03.323Z,20.67
2022-10-10T15:27:30.156Z,20.35
2022-10-10T15:29:57.165Z,13.50
2022-10-10T15:32:24.229Z,13.73
2022-10-10T15:34:52.411Z,18.55
2022-10-10T15:37:19.608Z,18.45
2022-10-10T15:39:46.549Z,16.60
2022-10-10T15:42:18.516Z,19.17
2022-10-10T15:44:49.934Z,21.17
2022-10-10T15:47:18.906Z,18.20
2022-10-10T15:49:45.833Z,23.92
2022-10-10T15:52:13.342Z,18.88
2022-10-10T15:54:40.330Z,20.70
2022-10-10T15:57:07.162Z,17.45
2022-10-10T15:59:35.745Z,18.85
2022-10-10T16:02:04.696Z,24.58
2022-10-10T16:04:31.534Z,22.65
2022-10-10T16:09:45.171Z,23.60
2022-10-10T16:12:12.067Z,21.77
2022-10-10T16:14:39.201Z,19.00
2022-10-10T16:17:05.984Z,22.40
2022-10-10T16:19:32.850Z,23.98
2022-10-10T16:21:59.698Z,17.33
2022-10-10T16:24:26.472Z,22.40
2022-10-10T16:26:53.473Z,22.67
2022-10-10T16:29:20.860Z,26.30
2022-10-10T16:31:47.780Z,20.77
2022-10-10T16:34:16.161Z,22.42
2022-10-10T16:36:43.129Z,25.20
2022-10-10T16:39:10.251Z,22.70
2022-10-10T16:41:52.672Z,24.23
2022-10-10T16:44:19.511Z,24.05
2022-10-10T16:46:46.944Z,29.45
2022-10-10T16:49:16.865Z,18.10
2022-10-10T16:51:43.855Z,20.92
2022-10-10T16:54:10.722Z,20.33
2022-10-10T16:56:37.755Z,25.27
2022-10-10T16:59:04.734Z,23.13
2022-10-10T17:01:31.861Z,23.67
2022-10-10T17:04:00.698Z,20.35
2022-10-10T17:06:34.259Z,26.60
2022-10-10T17:09:02.956Z,23.83
2022-10-10T17:11:30.221Z,22.20
2022-10-10T17:13:57.157Z,19.60
2022-10-10T17:19:14.530Z,22.27
2022-10-10T17:21:41.349Z,18.83
2022-10-10T17:24:08.578Z,26.63
2022-10-10T17:26:35.509Z,18.40
2022-10-10T17:29:02.317Z,18.40
2022-10-10T17:31:29.529Z,24.38
2022-10-10T17:33:57.637Z,21.15
2022-10-10T17:36:27.805Z,16.50
2022-10-10T17:39:01.599Z,24.25
2022-10-10T17:41:29.954Z,21.90
2022-10-10T17:43:57.426Z,30.08
2022-10-10T17:46:34.702Z,25.58
2022-10-10T17:49:05.267Z,29.52
2022-10-10T17:51:32.115Z,21.70
2022-10-10T17:54:00.604Z,17.42
2022-10-10T17:56:27.845Z,23.77
2022-10-10T17:58:54.992Z,22.45
2022-10-10T18:01:22.652Z,22.20
2022-10-10T18:03:49.889Z,25.40
2022-10-10T18:06:21.720Z,22.95
2022-10-10T18:08:51.430Z,32.88
2022-10-10T18:11:25.598Z,26.85
2022-10-10T18:13:53.646Z,27.93
2022-10-10T18:16:23.183Z,21.60
2022-10-10T18:18:52.118Z,28.77
2022-10-10T18:21:21.743Z,24.88
2022-10-10T18:23:49.719Z,25.67
2022-10-10T18:26:23.749Z,27.48
2022-10-10T18:28:52.688Z,33.83
2022-10-10T18:31:26.410Z,28.00
2022-10-10T18:33:54.181Z,26.48
2022-10-10T18:36:25.940Z,23.38
2022-10-10T18:38:53.194Z,24.70
2022-10-10T18:41:23.525Z,31.67
2022-10-10T18:43:51.839Z,23.55
2022-10-10T18:46:24.020Z,28.83
2022-10-10T18:48:54.002Z,24.83
2022-10-10T18:51:26.381Z,30.40
2022-10-10T18:54:05.886Z,32.50
2022-10-10T18:56:34.054Z,25.75
2022-10-10T18:59:06.624Z,28.13
2022-10-10T19:01:37.052Z,30.95
2022-10-10T19:04:07.393Z,26.35
2022-10-10T19:06:36.356Z,24.17
2022-10-10T19:09:06.373Z,33.40
2022-10-10T19:11:39.322Z,31.77
2022-10-10T19:14:10.418Z,28.95
2022-10-10T19:16:42.257Z,33.78
2022-10-10T19:19:13.028Z,28.33
2022-10-10T19:21:40.420Z,25.30
2022-10-10T19:24:09.008Z,26.08
2022-10-10T19:26:37.226Z,34.45
2022-10-10T19:29:07.521Z,27.42
2022-10-10T19:31:36.559Z,33.75
2022-10-10T19:34:04.080Z,26.38
2022-10-10T19:36:31.001Z,38.15
2022-10-10T19:39:00.182Z,31.65
2022-10-10T19:41:27.390Z,27.42
2022-10-10T19:43:54.254Z,26.23
2022-10-10T19:46:23.333Z,24.67
2022-10-10T19:48:51.918Z,19.05
2022-10-10T19:51:19.619Z,25.83
2022-10-10T19:53:47.309Z,30.00
2022-10-10T19:56:26.613Z,27.00
2022-10-10T19:58:59.749Z,29.15
2022-10-10T20:01:29.985Z,34.45
2022-10-10T20:03:58.095Z,25.83
2022-10-10T20:06:25.456Z,30.48
2022-10-10T20:08:52.285Z,26.10
2022-10-10T20:11:20.466Z,20.85
2022-10-10T20:13:49.584Z,26.48
2022-10-10T20:16:16.685Z,34.95
2022-10-10T20:18:43.937Z,26.00
2022-10-10T20:21:23.499Z,28.98
2022-10-10T20:23:51.072Z,31.98
2022-10-10T20:26:23.468Z,24.33
2022-10-10T20:28:51.931Z,24.15
2022-10-10T20:31:29.237Z,32.40
2022-10-10T20:33:58.976Z,34.60
2022-10-10T20:36:26.258Z,31.50
2022-10-10T20:39:00.925Z,34.13
2022-10-10T20:41:32.081Z,33.05
2022-10-10T20:44:03.189Z,22.80
2022-10-10T20:46:35.618Z,26.58
2022-10-10T20:49:06.424Z,40.47
2022-10-10T20:51:33.313Z,31.10
2022-10-10T20:54:02.697Z,31.27
2022-10-10T20:56:31.607Z,33.83
2022-10-10T20:58:59.917Z,29.90
2022-10-10T21:01:29.415Z,29.88
2022-10-10T21:03:56.355Z,25.23
2022-10-10T21:06:29.025Z,29.25
2022-10-10T21:08:56.861Z,30.85
2022-10-10T21:11:24.359Z,29.85
2022-10-10T21:13:57.480Z,25.52
2022-10-10T21:16:27.978Z,29.88
2022-10-10T21:18:57.909Z,30.80
2022-10-10T21:21:28.394Z,28.30
2022-10-10T21:23:56.743Z,30.70
2022-10-10T21:26:30.009Z,28.30
2022-10-10T21:28:57.615Z,40.78
2022-10-10T21:31:28.324Z,47.35
2022-10-10T21:33:55.971Z,41.20
2022-10-10T21:36:25.355Z,46.10
2022-10-10T21:38:53.623Z,42.30
2022-10-10T21:41:21.725Z,41.30
2022-10-10T21:43:54.864Z,38.65
2022-10-10T21:46:29.794Z,37.25
2022-10-10T21:49:00.501Z,31.80
2022-10-10T21:51:27.401Z,37.70
2022-10-10T21:53:58.848Z,39.90
2022-10-10T21:56:26.588Z,34.28
2022-10-10T21:59:00.160Z,26.48
2022-10-10T22:01:28.130Z,31.75
2022-10-10T22:03:56.516Z,27.35
2022-10-10T22:06:25.195Z,112.35
2022-10-10T22:08:55.042Z,296.23
2022-10-10T22:11:26.153Z,271.90
2022-10-10T22:13:53.004Z,178.65
2022-10-10T22:16:20.856Z,148.68
2022-10-10T22:18:47.880Z,96.82
2022-10-10T22:21:17.268Z,65.25
2022-10-10T22:23:45.026Z,42.35
2022-10-10T22:26:15.190Z,33.88
2022-10-10T22:28:42.199Z,34.70
2022-10-10T22:31:13.069Z,26.67
2022-10-10T22:33:40.630Z,23.90
2022-10-10T22:36:09.018Z,24.98
2022-10-10T22:38:43.919Z,28.02
2022-10-10T22:41:12.491Z,24.83
2022-10-10T22:43:40.101Z,23.58
2022-10-10T22:46:08.195Z,23.55
2022-10-10T22:48:36.001Z,20.20
2022-10-10T22:51:16.608Z,19.52
2022-10-10T22:53:45.846Z,25.13
2022-10-10T22:56:19.436Z,18.67
2022-10-10T22:58:48.172Z,21.88
2022-10-10T23:01:18.787Z,29.45
2022-10-10T23:03:46.580Z,21.90
2022-10-10T23:06:14.030Z,25.88
2022-10-10T23:08:41.023Z,26.95
2022-10-10T23:11:08.300Z,31.25
2022-10-10T23:13:35.113Z,23.90
2022-10-10T23:16:02.407Z,18.00
2022-10-10T23:18:30.603Z,26.92
2022-10-10T23:20:57.404Z,20.55
2022-10-10T23:23:25.287Z,22.70
2022-10-10T23:25:52.320Z,22.10
2022-10-10T23:28:19.528Z,25.30
2022-10-10T23:30:48.407Z,27.90
2022-10-10T23:33:17.153Z,20.33
2022-10-10T23:35:43.988Z,22.25
2022-10-10T23:38:10.959Z,27.50
2022-10-10T23:40:37.780Z,26.50
2022-10-10T23:43:04.731Z,25.00
2022-10-10T23:45:31.913Z,26.10
2022-10-10T23:47:58.681Z,19.02
2022-10-10T23:50:25.563Z,28.27
2022-10-10T23:52:52.816Z,22.85
2022-10-10T23:55:19.617Z,21.70
2022-10-10T23:57:46.392Z,25.17
